Alianca Shanghai — A8CQ5 — position and weather

sailwx.info

Track history (hours):
 
Tides and Currents Weather Stations Pressure Air Temp Water Temp Dewpoint Dewpoint Depression Visibility Wind Speed Wind Dir Waves Ship Positions

Alianca Shanghai

Last reported at 2014-Aug-29 07:24 UTC. Time now 2014-Sep-20 09:59 UTC.
Position N 28°48' W 014°58'.
Warning: this ship's position is 22 days out of date.

Length 199.9 m; beam 29.8 m; draft 11.6 m.

Type: Ship (hazmat cat A). MMSI: 636016014.

Date/timePositionNaut miles runAvg speedWind from/ knotsBaromVisibWave heightAir tempDewpointWater temp
2014-Aug-29 07:24N 28°48' W 014°58'11014.1
2014-Aug-28 23:33N 30°25' W 013°58'3214.3
2014-Aug-28 21:17N 30°54' W 013°41'3114.6
2014-Aug-28 19:08N 31°21' W 013°23'2214.1
2014-Aug-28 17:34N 31°41' W 013°11'1614.2
2014-Aug-28 16:24N 31°55' W 013°02'9313.6
2014-Aug-28 09:33N 33°17' W 012°10'1513.4
2014-Aug-28 08:26N 33°30' W 012°02'1313.5
2014-Aug-28 07:29N 33°42' W 011°54'2613.7
2014-Aug-28 05:33N 34°05' W 011°39'2014.1
2014-Aug-28 04:07N 34°23' W 011°28'1114.1
2014-Aug-28 03:22N 34°32' W 011°21'1113.9
2014-Aug-28 02:33N 34°42' W 011°15'1413.7
2014-Aug-28 01:33N 34°54' W 011°07'2013.8
2014-Aug-28 00:05N 35°12' W 010°55'713.7
2014-Aug-27 23:33N 35°18' W 010°51'1413.7
2014-Aug-27 22:33N 35°30' W 010°42'5513.7
2014-Aug-27 18:33N 36°19' W 010°11'2014.1
2014-Aug-27 17:07N 36°37' W 009°59'813.9
2014-Aug-27 16:33N 36°43' W 009°54'7414.0
2014-Aug-27 11:16N 37°43' W 009°01'2 0.1
2014-Aug-26 18:33N 37°43' W 008°58'1413.7
2014-Aug-26 17:33N 37°31' W 009°06'1413.5
2014-Aug-26 16:33N 37°19' W 009°15'4410.7
2014-Aug-26 12:25N 36°36' W 008°58'1313.7
2014-Aug-26 11:27N 36°33' W 008°42'1313.4
2014-Aug-26 10:30N 36°29' W 008°28'1613.6
2014-Aug-26 09:19N 36°24' W 008°09'4414.2
2014-Aug-26 06:12N 36°13' W 007°16'2414.5
2014-Aug-26 04:33N 36°06' W 006°47'1414.4
2014-Aug-26 03:33N 36°02' W 006°30'1414.1
2014-Aug-26 02:33N 35°58' W 006°13'1413.7
2014-Aug-26 01:33N 35°57' W 005°56'23014.0
2014-Aug-25 09:08N 37°02' W 001°21'2515.8
2014-Aug-25 07:33N 37°18' W 000°57'1514.6
2014-Aug-25 06:32N 37°28' W 000°43'1414.2
2014-Aug-25 05:33N 37°37' W 000°31'10711.4
2014-Aug-24 20:10N 39°23' W 000°14'5 8.5
2014-Aug-24 19:34N 39°26' W 000°19'0 0.2
2014-Aug-24 18:31N 39°26' W 000°20'0 0.0
2014-Aug-24 17:31N 39°26' W 000°20'0 0.0
2014-Aug-24 16:25N 39°26' W 000°20'0 0.0
2014-Aug-24 15:31N 39°26' W 000°20'0 0.0
2014-Aug-24 14:22N 39°26' W 000°20'0 0.0
2014-Aug-24 13:31N 39°26' W 000°20'0 0.0
2014-Aug-24 12:31N 39°26' W 000°20'0 0.0
2014-Aug-24 11:31N 39°26' W 000°20'0 0.0
2014-Aug-24 10:31N 39°26' W 000°20'0 0.0
2014-Aug-24 09:28N 39°26' W 000°20'0 0.0
2014-Aug-24 08:31N 39°26' W 000°20'0 0.0
2014-Aug-24 07:31N 39°26' W 000°20'0 0.0
2014-Aug-24 06:31N 39°26' W 000°20'0 0.0
2014-Aug-24 05:31N 39°26' W 000°20'0 0.0
2014-Aug-24 04:31N 39°26' W 000°20'0 0.0
2014-Aug-24 03:31N 39°26' W 000°20'0 0.0
2014-Aug-24 02:31N 39°26' W 000°20'36 0.8
2014-Aug-22 06:14N 38°59' E 000°12'1013.7
2014-Aug-22 05:30N 38°51' E 000°19'1212.2
2014-Aug-22 04:32N 38°41' E 000°27'1413.7
2014-Aug-22 03:32N 38°29' E 000°17'2813.5
2014-Aug-22 01:29N 38°06' W 000°03'1213.4
2014-Aug-22 00:33N 37°56' W 000°12'1313.4
2014-Aug-21 23:33N 37°45' W 000°21'1413.4
2014-Aug-21 22:32N 37°33' W 000°30'1313.2
2014-Aug-21 21:30N 37°24' W 000°42'1313.0
2014-Aug-21 20:33N 37°16' W 000°55'1513.0
2014-Aug-21 19:25N 37°06' W 001°08'1713.2
2014-Aug-21 18:08N 36°54' W 001°24'813.3
2014-Aug-21 17:31N 36°49' W 001°31'19113.7
2014-Aug-21 03:33N 35°59' W 005°20'8513.9
2014-Aug-20 21:27N 35°20' W 006°53'1314.2
2014-Aug-20 20:33N 35°11' W 007°04'13713.7
2014-Aug-20 10:32N 33°33' W 009°01'1913.4
2014-Aug-20 09:07N 33°19' W 009°17'1413.5
2014-Aug-20 08:04N 33°09' W 009°29'713.5
2014-Aug-20 07:33N 33°05' W 009°35'14512.9
2014-Aug-19 20:22N 31°01' W 011°04'  
Track history (hours):
 
Tides and Currents Weather Stations Pressure Air Temp Water Temp Dewpoint Dewpoint Depression Visibility Wind Speed Wind Dir Waves Ship Positions

Alianca Shanghai

Last reported at 2014-Aug-29 07:24 UTC. Time now 2014-Sep-20 09:59 UTC.
Position N 28°48' W 014°58'.
Warning: this ship's position is 22 days out of date.

Length 199.9 m; beam 29.8 m; draft 11.6 m.

Type: Ship (hazmat cat A). MMSI: 636016014.

Date/timePositionNaut miles runAvg speedWind from/ knotsBaromVisibWave heightAir tempDewpointWater temp
2014-Aug-29 07:24N 28°48' W 014°58'11014.1
2014-Aug-28 23:33N 30°25' W 013°58'3214.3
2014-Aug-28 21:17N 30°54' W 013°41'3114.6
2014-Aug-28 19:08N 31°21' W 013°23'2214.1
2014-Aug-28 17:34N 31°41' W 013°11'1614.2
2014-Aug-28 16:24N 31°55' W 013°02'9313.6
2014-Aug-28 09:33N 33°17' W 012°10'1513.4
2014-Aug-28 08:26N 33°30' W 012°02'1313.5
2014-Aug-28 07:29N 33°42' W 011°54'2613.7
2014-Aug-28 05:33N 34°05' W 011°39'2014.1
2014-Aug-28 04:07N 34°23' W 011°28'1114.1
2014-Aug-28 03:22N 34°32' W 011°21'1113.9
2014-Aug-28 02:33N 34°42' W 011°15'1413.7
2014-Aug-28 01:33N 34°54' W 011°07'2013.8
2014-Aug-28 00:05N 35°12' W 010°55'713.7
2014-Aug-27 23:33N 35°18' W 010°51'1413.7
2014-Aug-27 22:33N 35°30' W 010°42'5513.7
2014-Aug-27 18:33N 36°19' W 010°11'2014.1
2014-Aug-27 17:07N 36°37' W 009°59'813.9
2014-Aug-27 16:33N 36°43' W 009°54'7414.0
2014-Aug-27 11:16N 37°43' W 009°01'2 0.1
2014-Aug-26 18:33N 37°43' W 008°58'1413.7
2014-Aug-26 17:33N 37°31' W 009°06'1413.5
2014-Aug-26 16:33N 37°19' W 009°15'4410.7
2014-Aug-26 12:25N 36°36' W 008°58'1313.7
2014-Aug-26 11:27N 36°33' W 008°42'1313.4
2014-Aug-26 10:30N 36°29' W 008°28'1613.6
2014-Aug-26 09:19N 36°24' W 008°09'4414.2
2014-Aug-26 06:12N 36°13' W 007°16'2414.5
2014-Aug-26 04:33N 36°06' W 006°47'1414.4
2014-Aug-26 03:33N 36°02' W 006°30'1414.1
2014-Aug-26 02:33N 35°58' W 006°13'1413.7
2014-Aug-26 01:33N 35°57' W 005°56'23014.0
2014-Aug-25 09:08N 37°02' W 001°21'2515.8
2014-Aug-25 07:33N 37°18' W 000°57'1514.6
2014-Aug-25 06:32N 37°28' W 000°43'1414.2
2014-Aug-25 05:33N 37°37' W 000°31'10711.4
2014-Aug-24 20:10N 39°23' W 000°14'5 8.5
2014-Aug-24 19:34N 39°26' W 000°19'0 0.2
2014-Aug-24 18:31N 39°26' W 000°20'0 0.0
2014-Aug-24 17:31N 39°26' W 000°20'0 0.0
2014-Aug-24 16:25N 39°26' W 000°20'0 0.0
2014-Aug-24 15:31N 39°26' W 000°20'0 0.0
2014-Aug-24 14:22N 39°26' W 000°20'0 0.0
2014-Aug-24 13:31N 39°26' W 000°20'0 0.0
2014-Aug-24 12:31N 39°26' W 000°20'0 0.0
2014-Aug-24 11:31N 39°26' W 000°20'0 0.0
2014-Aug-24 10:31N 39°26' W 000°20'0 0.0
2014-Aug-24 09:28N 39°26' W 000°20'0 0.0
2014-Aug-24 08:31N 39°26' W 000°20'0 0.0
2014-Aug-24 07:31N 39°26' W 000°20'0 0.0
2014-Aug-24 06:31N 39°26' W 000°20'0 0.0
2014-Aug-24 05:31N 39°26' W 000°20'0 0.0
2014-Aug-24 04:31N 39°26' W 000°20'0 0.0
2014-Aug-24 03:31N 39°26' W 000°20'0 0.0
2014-Aug-24 02:31N 39°26' W 000°20'36 0.8
2014-Aug-22 06:14N 38°59' E 000°12'1013.7
2014-Aug-22 05:30N 38°51' E 000°19'1212.2
2014-Aug-22 04:32N 38°41' E 000°27'1413.7
2014-Aug-22 03:32N 38°29' E 000°17'2813.5
2014-Aug-22 01:29N 38°06' W 000°03'1213.4
2014-Aug-22 00:33N 37°56' W 000°12'1313.4
2014-Aug-21 23:33N 37°45' W 000°21'1413.4
2014-Aug-21 22:32N 37°33' W 000°30'1313.2
2014-Aug-21 21:30N 37°24' W 000°42'1313.0
2014-Aug-21 20:33N 37°16' W 000°55'1513.0
2014-Aug-21 19:25N 37°06' W 001°08'1713.2
2014-Aug-21 18:08N 36°54' W 001°24'813.3
2014-Aug-21 17:31N 36°49' W 001°31'19113.7
2014-Aug-21 03:33N 35°59' W 005°20'8513.9
2014-Aug-20 21:27N 35°20' W 006°53'1314.2
2014-Aug-20 20:33N 35°11' W 007°04'13713.7
2014-Aug-20 10:32N 33°33' W 009°01'1913.4
2014-Aug-20 09:07N 33°19' W 009°17'1413.5
2014-Aug-20 08:04N 33°09' W 009°29'713.5
2014-Aug-20 07:33N 33°05' W 009°35'14512.9
2014-Aug-19 20:22N 31°01' W 011°04'  

Dump ship's entire track history